Time;durP1;ratioP1;P1;durP2;ratioP2;P2;SDS_P1;SDS_P2;PMS_P1;PMS_P2;Temp;Humidity;BMP_temperature;BMP_pressure;BME280_temperature;BME280_humidity;BME280_pressure;Samples;Min_cycle;Max_cycle;Signal;HPM_P1;HPM_P2
2021/10/08 00:00:07;;;;;;;19.83;13.95;;;15.40;97.70;;;;;;5010942;28;20126;-71
2021/10/08 00:02:32;;;;;;;17.75;13.45;;;15.30;97.80;;;;;;5007370;28;20383;-71
2021/10/08 00:04:58;;;;;;;18.13;13.65;;;15.30;97.80;;;;;;5011957;28;20032;-71
2021/10/08 00:07:23;;;;;;;19.15;13.50;;;15.30;97.90;;;;;;5007375;28;20041;-71
2021/10/08 00:09:49;;;;;;;20.63;14.35;;;15.20;97.90;;;;;;5023446;28;20160;-71
2021/10/08 00:12:14;;;;;;;18.92;13.77;;;15.20;98.10;;;;;;5022950;28;20029;-71
2021/10/08 00:14:40;;;;;;;21.30;13.25;;;15.10;98.10;;;;;;5009896;28;20036;-70
2021/10/08 00:17:05;;;;;;;22.92;14.38;;;15.10;98.20;;;;;;5007471;28;20026;-70
2021/10/08 00:19:31;;;;;;;18.10;13.07;;;15.10;98.30;;;;;;5000949;28;20096;-70
2021/10/08 00:21:56;;;;;;;19.45;14.05;;;15.10;98.30;;;;;;5003142;28;20034;-70
2021/10/08 00:24:22;;;;;;;22.90;14.30;;;15.10;98.40;;;;;;4993109;28;20037;-70
2021/10/08 00:26:48;;;;;;;25.60;15.63;;;15.00;98.40;;;;;;5002599;28;20109;-70
2021/10/08 00:29:13;;;;;;;20.38;14.68;;;15.00;98.50;;;;;;4992256;28;20053;-70
2021/10/08 00:31:39;;;;;;;18.63;15.07;;;15.00;98.50;;;;;;5011750;28;20467;-69
2021/10/08 00:34:04;;;;;;;19.80;14.57;;;14.90;98.80;;;;;;5010444;28;20451;-70
2021/10/08 00:36:30;;;;;;;20.02;14.43;;;14.90;98.60;;;;;;5011071;28;20022;-69
2021/10/08 00:38:57;;;;;;;21.58;14.23;;;14.90;98.60;;;;;;4995427;28;20178;-70
2021/10/08 00:41:24;;;;;;;18.38;13.98;;;14.90;98.70;;;;;;4993047;28;20023;-70
2021/10/08 00:43:51;;;;;;;23.50;16.50;;;14.90;98.70;;;;;;5008455;28;20030;-70
2021/10/08 00:46:17;;;;;;;24.70;17.05;;;14.90;98.80;;;;;;5010532;28;20025;-70
2021/10/08 00:48:42;;;;;;;23.23;16.88;;;14.80;98.80;;;;;;5006191;28;20749;-70
2021/10/08 00:51:08;;;;;;;27.00;16.30;;;14.80;98.80;;;;;;5007338;28;20052;-69
2021/10/08 00:53:33;;;;;;;20.85;15.13;;;14.80;98.80;;;;;;5008187;28;20037;-70
2021/10/08 00:56:00;;;;;;;21.10;15.30;;;14.80;98.90;;;;;;5009715;28;20467;-70
2021/10/08 00:58:26;;;;;;;23.08;15.75;;;14.70;98.90;;;;;;5006091;28;20033;-70
2021/10/08 01:00:52;;;;;;;21.40;15.00;;;14.70;99.00;;;;;;5009904;28;20026;-69
2021/10/08 01:03:20;;;;;;;21.67;16.48;;;14.60;99.10;;;;;;5010025;28;20054;-69
2021/10/08 01:05:46;;;;;;;22.83;16.90;;;14.60;99.20;;;;;;5011761;28;20097;-69
2021/10/08 01:08:12;;;;;;;20.83;15.90;;;14.50;99.20;;;;;;5012540;28;20033;-69
2021/10/08 01:10:39;;;;;;;22.27;15.85;;;14.50;99.20;;;;;;5031373;28;20029;-69
2021/10/08 01:13:06;;;;;;;26.83;17.35;;;14.40;99.30;;;;;;5013323;28;20502;-70
2021/10/08 01:15:31;;;;;;;26.88;18.08;;;14.50;99.30;;;;;;4990633;28;20499;-68
2021/10/08 01:17:57;;;;;;;23.88;16.33;;;14.40;99.40;;;;;;4992464;28;20121;-69
2021/10/08 01:20:24;;;;;;;25.55;16.58;;;14.40;99.40;;;;;;4992384;28;20414;-69
2021/10/08 01:22:49;;;;;;;22.50;16.42;;;14.40;99.50;;;;;;5002783;28;20073;-69
2021/10/08 01:25:15;;;;;;;31.05;17.98;;;14.30;99.50;;;;;;5015019;28;20119;-69
2021/10/08 01:27:42;;;;;;;26.75;17.88;;;14.40;99.50;;;;;;5013557;28;20041;-69
2021/10/08 01:30:09;;;;;;;25.77;16.65;;;14.40;99.50;;;;;;5015093;28;20061;-69
2021/10/08 01:32:35;;;;;;;27.15;18.60;;;14.40;99.50;;;;;;5012386;28;20030;-69
2021/10/08 01:35:01;;;;;;;27.10;17.77;;;14.40;99.50;;;;;;5014720;28;20109;-70
2021/10/08 01:37:27;;;;;;;23.58;16.40;;;14.40;99.50;;;;;;5013093;28;20117;-70
2021/10/08 01:39:53;;;;;;;22.67;17.02;;;14.40;99.50;;;;;;5014828;28;20026;-70
2021/10/08 01:42:19;;;;;;;22.30;15.65;;;14.40;99.50;;;;;;5014458;28;20034;-70
2021/10/08 01:44:44;;;;;;;29.25;19.58;;;14.40;99.50;;;;;;4995060;28;20040;-70
2021/10/08 01:47:10;;;;;;;24.60;17.13;;;14.40;99.50;;;;;;4995260;28;20026;-69
2021/10/08 01:49:35;;;;;;;24.50;16.50;;;14.30;99.50;;;;;;4998908;28;20030;-69
2021/10/08 01:52:02;;;;;;;25.50;17.42;;;14.30;99.50;;;;;;5014641;28;20026;-70
2021/10/08 01:54:28;;;;;;;23.83;17.23;;;14.30;99.60;;;;;;5011034;28;20053;-69
2021/10/08 01:56:53;;;;;;;24.67;16.63;;;14.30;99.60;;;;;;5012027;28;20418;-70
2021/10/08 01:59:19;;;;;;;23.05;16.13;;;14.30;99.60;;;;;;5012267;28;20092;-69
2021/10/08 02:01:45;;;;;;;25.58;17.73;;;14.30;99.60;;;;;;5009123;28;20029;-69
2021/10/08 02:04:11;;;;;;;24.27;15.82;;;14.20;99.60;;;;;;5012318;28;20030;-69
2021/10/08 02:06:37;;;;;;;22.80;16.15;;;14.20;99.60;;;;;;4994683;28;20033;-69
2021/10/08 02:09:04;;;;;;;26.10;16.73;;;14.20;99.70;;;;;;5003965;28;20440;-69
2021/10/08 02:11:29;;;;;;;23.80;15.77;;;14.10;99.70;;;;;;4994461;28;20080;-69
2021/10/08 02:13:56;;;;;;;22.40;16.27;;;14.20;99.80;;;;;;5001481;28;20121;-69
2021/10/08 02:16:22;;;;;;;27.40;17.65;;;14.10;99.70;;;;;;4994962;28;20085;-69
2021/10/08 02:18:52;;;;;;;26.48;17.30;;;14.00;99.80;;;;;;4994711;28;20615;-69
2021/10/08 02:21:19;;;;;;;26.55;19.15;;;14.00;99.80;;;;;;5011376;28;20041;-69
2021/10/08 02:23:45;;;;;;;25.85;17.42;;;14.00;99.90;;;;;;5013844;28;20115;-69
2021/10/08 02:26:12;;;;;;;29.42;17.45;;;13.90;99.90;;;;;;5010895;28;20507;-69
2021/10/08 02:28:38;;;;;;;26.25;19.17;;;13.90;99.90;;;;;;5013742;28;20103;-69
2021/10/08 02:31:04;;;;;;;26.67;18.58;;;13.90;99.90;;;;;;5012041;28;20113;-68
2021/10/08 02:33:30;;;;;;;32.90;20.90;;;13.80;99.90;;;;;;5012893;28;20038;-68
2021/10/08 02:35:56;;;;;;;28.20;19.08;;;13.80;99.90;;;;;;5012847;28;20371;-69
2021/10/08 02:38:22;;;;;;;35.60;21.02;;;13.80;99.90;;;;;;5013886;28;20033;-70
2021/10/08 02:40:47;;;;;;;27.38;18.67;;;13.70;99.90;;;;;;5012558;28;20018;-71
2021/10/08 02:43:13;;;;;;;26.63;18.33;;;13.70;99.90;;;;;;5012522;28;20576;-69
2021/10/08 02:45:40;;;;;;;29.55;20.02;;;13.80;99.90;;;;;;4999455;28;20577;-70
2021/10/08 02:48:06;;;;;;;30.25;19.65;;;13.70;99.90;;;;;;4994095;28;20123;-71
2021/10/08 02:50:32;;;;;;;31.80;21.42;;;13.70;99.90;;;;;;5005240;28;20571;-68
2021/10/08 02:52:57;;;;;;;29.67;20.27;;;13.70;99.90;;;;;;5013509;28;20391;-69
2021/10/08 02:55:23;;;;;;;27.80;19.52;;;13.70;99.90;;;;;;5003477;28;20057;-68
2021/10/08 02:57:48;;;;;;;38.90;20.58;;;13.70;99.90;;;;;;4999647;28;20030;-68
2021/10/08 03:00:14;;;;;;;33.78;21.08;;;13.60;99.90;;;;;;5013874;28;20041;-69
2021/10/08 03:02:40;;;;;;;32.63;20.92;;;13.60;99.90;;;;;;5011298;28;20027;-70
2021/10/08 03:05:07;;;;;;;30.98;21.33;;;13.60;99.90;;;;;;5010901;28;20041;-70
2021/10/08 03:07:32;;;;;;;28.75;20.48;;;13.60;99.90;;;;;;5020706;28;20078;-69
2021/10/08 03:09:58;;;;;;;35.33;23.05;;;13.50;99.90;;;;;;5020900;28;20037;-69
2021/10/08 03:12:24;;;;;;;34.28;21.40;;;13.50;99.90;;;;;;5012337;28;20065;-69
2021/10/08 03:14:49;;;;;;;41.08;23.45;;;13.50;99.90;;;;;;5004375;28;20178;-69
2021/10/08 03:17:15;;;;;;;36.03;22.92;;;13.40;99.90;;;;;;4993865;28;20034;-69
2021/10/08 03:19:41;;;;;;;42.05;25.10;;;13.40;99.90;;;;;;4992720;28;20526;-70
2021/10/08 03:22:08;;;;;;;37.53;23.55;;;13.40;99.90;;;;;;4993430;28;20052;-70
2021/10/08 03:24:33;;;;;;;40.10;24.33;;;13.40;99.90;;;;;;4996721;28;20508;-70
2021/10/08 03:26:59;;;;;;;37.78;23.65;;;13.40;99.90;;;;;;5012945;28;20116;-70
2021/10/08 03:29:24;;;;;;;40.60;25.00;;;13.40;99.90;;;;;;5012062;28;20037;-70
2021/10/08 03:31:50;;;;;;;41.00;26.15;;;13.40;99.90;;;;;;5013092;28;20068;-70
2021/10/08 03:34:15;;;;;;;40.40;24.73;;;13.40;99.90;;;;;;5010492;28;20048;-69
2021/10/08 03:39:08;;;;;;;41.70;25.00;;;13.40;99.90;;;;;;5011691;28;20076;-70
2021/10/08 03:41:35;;;;;;;39.55;25.83;;;13.40;99.90;;;;;;4993500;28;20105;-70
2021/10/08 03:44:02;;;;;;;35.05;22.85;;;13.40;99.90;;;;;;5006346;28;20034;-71
2021/10/08 03:46:32;;;;;;;40.05;24.80;;;13.40;99.90;;;;;;5012134;28;20109;-70
2021/10/08 03:49:12;;;;;;;39.85;24.38;;;13.30;99.90;;;;;;5011321;28;20066;-70
2021/10/08 03:51:38;;;;;;;36.80;22.65;;;13.30;99.90;;;;;;4993359;28;20442;-70
2021/10/08 03:54:04;;;;;;;38.65;24.55;;;13.30;99.90;;;;;;4999344;28;20054;-69
2021/10/08 03:56:31;;;;;;;34.17;22.52;;;13.30;99.90;;;;;;5011465;28;20088;-69
2021/10/08 03:58:58;;;;;;;42.25;24.60;;;13.30;99.90;;;;;;5012588;28;20030;-70
2021/10/08 04:01:24;;;;;;;38.40;23.27;;;13.30;99.90;;;;;;5011110;28;20034;-69
2021/10/08 04:03:50;;;;;;;38.75;23.90;;;13.30;99.90;;;;;;4993980;28;20027;-68
2021/10/08 04:06:16;;;;;;;44.55;26.48;;;13.30;99.90;;;;;;5009380;28;20044;-68
2021/10/08 04:08:42;;;;;;;43.28;24.85;;;13.30;99.90;;;;;;4991133;28;20042;-68
2021/10/08 04:11:08;;;;;;;37.75;23.75;;;13.30;99.90;;;;;;5008338;28;20026;-68
2021/10/08 04:13:34;;;;;;;41.35;25.10;;;13.20;99.90;;;;;;5011160;28;20133;-68
2021/10/08 04:15:59;;;;;;;43.95;25.52;;;13.20;99.90;;;;;;5011201;28;20088;-68
2021/10/08 04:18:25;;;;;;;38.67;24.60;;;13.20;99.90;;;;;;5012215;28;20036;-69
2021/10/08 04:20:50;;;;;;;44.17;27.77;;;13.10;99.90;;;;;;5010997;28;20441;-69
2021/10/08 04:23:17;;;;;;;42.33;26.48;;;13.20;99.90;;;;;;5011886;28;20037;-68
2021/10/08 04:25:43;;;;;;;43.90;27.52;;;13.10;99.90;;;;;;5010112;28;20026;-67
2021/10/08 04:28:09;;;;;;;43.30;25.77;;;13.00;99.90;;;;;;5011904;28;20041;-68
2021/10/08 04:30:34;;;;;;;47.00;26.40;;;13.00;99.90;;;;;;4998506;28;20024;-69
2021/10/08 04:33:00;;;;;;;44.25;25.80;;;12.90;99.90;;;;;;5011113;28;20029;-69
2021/10/08 04:35:25;;;;;;;44.83;28.05;;;13.00;99.90;;;;;;5008693;28;20453;-69
2021/10/08 04:37:51;;;;;;;42.83;25.92;;;13.00;99.90;;;;;;5011571;28;20035;-69
2021/10/08 04:40:16;;;;;;;39.63;25.92;;;13.00;99.90;;;;;;5003142;28;20022;-69
2021/10/08 04:42:42;;;;;;;41.90;25.20;;;12.90;99.90;;;;;;4997409;28;20027;-69
2021/10/08 04:45:08;;;;;;;44.75;25.30;;;12.90;99.90;;;;;;4999328;28;20030;-69
2021/10/08 04:47:34;;;;;;;42.30;25.05;;;12.90;99.90;;;;;;5027037;28;20038;-69
2021/10/08 04:49:59;;;;;;;47.60;26.70;;;12.90;99.90;;;;;;5021551;28;20026;-69
2021/10/08 04:52:25;;;;;;;43.35;24.98;;;12.90;99.90;;;;;;5011536;28;20065;-69
2021/10/08 04:54:50;;;;;;;43.10;26.45;;;12.90;99.90;;;;;;5009661;28;20108;-69
2021/10/08 04:57:16;;;;;;;43.67;26.40;;;12.90;99.90;;;;;;5015310;28;20472;-69
2021/10/08 04:59:41;;;;;;;40.30;23.90;;;12.90;99.90;;;;;;5013746;28;20034;-69
2021/10/08 05:02:07;;;;;;;35.97;24.42;;;12.80;99.90;;;;;;5014177;28;20644;-69
2021/10/08 05:04:32;;;;;;;39.90;23.15;;;12.80;99.90;;;;;;5014513;28;20033;-70
2021/10/08 05:06:58;;;;;;;40.65;24.02;;;12.90;99.90;;;;;;5015199;28;20026;-69
2021/10/08 05:09:23;;;;;;;40.20;25.15;;;12.80;99.90;;;;;;5014214;28;20189;-70
2021/10/08 05:11:49;;;;;;;40.75;24.33;;;12.90;99.90;;;;;;5007737;28;20057;-70
2021/10/08 05:14:14;;;;;;;39.30;24.75;;;12.80;99.90;;;;;;4996755;28;20034;-70
2021/10/08 05:16:40;;;;;;;42.97;25.75;;;12.80;99.90;;;;;;5015649;28;20026;-69
2021/10/08 05:19:07;;;;;;;41.97;24.25;;;12.80;99.90;;;;;;5012734;28;20022;-69
2021/10/08 05:21:33;;;;;;;39.13;25.10;;;12.80;99.90;;;;;;4996324;28;20503;-70
2021/10/08 05:23:59;;;;;;;43.08;24.73;;;12.80;99.90;;;;;;4995561;28;20157;-70
2021/10/08 05:26:24;;;;;;;40.05;24.75;;;12.80;99.90;;;;;;5013183;28;20125;-69
2021/10/08 05:28:50;;;;;;;43.95;25.17;;;12.80;99.90;;;;;;5014159;28;20033;-69
2021/10/08 05:31:15;;;;;;;41.65;26.45;;;12.80;99.90;;;;;;5013308;28;20522;-69
2021/10/08 05:33:41;;;;;;;43.83;25.88;;;12.80;99.90;;;;;;5014181;28;20029;-69
2021/10/08 05:36:06;;;;;;;39.20;24.70;;;12.80;99.90;;;;;;5013342;28;20033;-69
2021/10/08 05:38:32;;;;;;;40.17;25.75;;;12.80;99.90;;;;;;5012171;28;20423;-69
2021/10/08 05:40:58;;;;;;;42.13;25.77;;;12.80;99.90;;;;;;4999141;28;20064;-70
2021/10/08 05:43:23;;;;;;;41.38;25.92;;;12.70;99.90;;;;;;4995426;28;20041;-69
2021/10/08 05:45:49;;;;;;;45.22;26.42;;;12.80;99.90;;;;;;5008024;28;20022;-70
2021/10/08 05:48:14;;;;;;;42.35;25.63;;;12.80;99.90;;;;;;5014664;28;20034;-69
2021/10/08 05:50:40;;;;;;;42.50;24.77;;;12.80;99.90;;;;;;5011690;28;20030;-69
2021/10/08 05:53:10;;;;;;;43.78;26.95;;;12.80;99.90;;;;;;5007969;28;20092;-69
2021/10/08 05:55:37;;;;;;;41.22;25.25;;;12.80;99.90;;;;;;5012228;28;20388;-69
2021/10/08 05:58:03;;;;;;;40.70;25.02;;;12.80;99.90;;;;;;5014727;28;20355;-70
2021/10/08 06:00:29;;;;;;;42.53;25.63;;;12.80;99.90;;;;;;5013421;28;20080;-70
2021/10/08 06:02:54;;;;;;;40.67;25.27;;;12.70;99.90;;;;;;5003156;28;20030;-70
2021/10/08 06:05:20;;;;;;;43.60;25.40;;;12.70;99.90;;;;;;5004137;28;20084;-70
2021/10/08 06:07:45;;;;;;;42.05;25.88;;;12.70;99.90;;;;;;4999319;28;20034;-69
2021/10/08 06:10:11;;;;;;;38.70;25.15;;;12.70;99.90;;;;;;5012604;28;20442;-70
2021/10/08 06:12:36;;;;;;;35.72;24.95;;;12.70;99.90;;;;;;5003144;28;20026;-69
2021/10/08 06:15:02;;;;;;;39.38;25.27;;;12.70;99.90;;;;;;5002609;28;20037;-69
2021/10/08 06:17:28;;;;;;;41.35;25.42;;;12.70;99.90;;;;;;5012660;28;20387;-68
2021/10/08 06:19:53;;;;;;;43.72;26.52;;;12.70;99.90;;;;;;5001951;28;20120;-70
2021/10/08 06:22:19;;;;;;;36.67;23.60;;;12.70;99.90;;;;;;5004306;28;20034;-70
2021/10/08 06:24:44;;;;;;;42.42;25.73;;;12.70;99.90;;;;;;5001810;28;20389;-68
2021/10/08 06:27:10;;;;;;;41.58;25.75;;;12.70;99.90;;;;;;5011988;28;20026;-68
2021/10/08 06:29:35;;;;;;;46.63;25.85;;;12.70;99.90;;;;;;5002718;28;20038;-68
2021/10/08 06:32:01;;;;;;;47.13;25.88;;;12.70;99.90;;;;;;5003319;28;20022;-69
2021/10/08 06:34:26;;;;;;;37.67;24.85;;;12.70;99.90;;;;;;5000739;28;20033;-69
2021/10/08 06:36:52;;;;;;;44.72;25.35;;;12.70;99.90;;;;;;5011252;28;20391;-68
2021/10/08 06:39:17;;;;;;;40.00;24.42;;;12.70;99.90;;;;;;5001737;28;20026;-68
2021/10/08 06:41:43;;;;;;;35.88;24.23;;;12.70;99.90;;;;;;5004920;28;20449;-68
2021/10/08 06:44:08;;;;;;;36.72;23.40;;;12.70;99.90;;;;;;5001802;28;20029;-68
2021/10/08 06:46:34;;;;;;;35.95;23.63;;;12.80;99.90;;;;;;5004182;28;20026;-68
2021/10/08 06:48:59;;;;;;;36.53;23.25;;;12.70;99.90;;;;;;5002768;28;20120;-69
2021/10/08 06:51:25;;;;;;;34.50;23.35;;;12.80;99.90;;;;;;5007692;28;20390;-69
2021/10/08 06:53:50;;;;;;;35.83;22.77;;;12.80;99.90;;;;;;5011393;28;20104;-68
2021/10/08 06:56:16;;;;;;;30.00;21.50;;;12.80;99.90;;;;;;5001501;28;20470;-69
2021/10/08 06:58:41;;;;;;;34.83;23.05;;;12.80;99.90;;;;;;5006006;28;20026;-69
2021/10/08 07:01:07;;;;;;;37.90;23.25;;;12.80;99.90;;;;;;5002661;28;20456;-68
2021/10/08 07:03:32;;;;;;;33.25;22.00;;;12.80;99.90;;;;;;5006647;28;20836;-69
2021/10/08 07:05:58;;;;;;;31.63;21.83;;;12.80;99.90;;;;;;5000533;28;20113;-69
2021/10/08 07:08:23;;;;;;;33.45;22.40;;;12.90;99.90;;;;;;5009440;28;20045;-69
2021/10/08 07:10:49;;;;;;;35.33;23.23;;;12.90;99.90;;;;;;5010637;28;20483;-69
2021/10/08 07:13:14;;;;;;;35.50;22.63;;;12.90;99.90;;;;;;4996207;28;20111;-70
2021/10/08 07:15:40;;;;;;;33.38;21.88;;;12.90;99.90;;;;;;4995550;28;20137;-69
2021/10/08 07:18:14;;;;;;;33.83;22.60;;;13.00;99.90;;;;;;5002911;28;20498;-69
2021/10/08 07:20:39;;;;;;;35.33;23.10;;;13.00;99.90;;;;;;5004470;28;20060;-69
2021/10/08 07:23:06;;;;;;;36.33;22.00;;;13.10;99.90;;;;;;5001331;28;20073;-69
2021/10/08 07:25:31;;;;;;;37.30;24.25;;;13.10;99.90;;;;;;4997328;28;20072;-70
2021/10/08 07:27:57;;;;;;;33.33;22.02;;;13.20;99.90;;;;;;5003253;28;20065;-69
2021/10/08 07:30:23;;;;;;;31.35;22.58;;;13.20;99.90;;;;;;5005452;28;20241;-69
2021/10/08 07:32:48;;;;;;;27.50;19.55;;;13.30;99.70;;;;;;4994785;28;20027;-68
2021/10/08 07:35:15;;;;;;;28.15;20.13;;;13.40;99.70;;;;;;5008915;28;20021;-69
2021/10/08 07:37:41;;;;;;;31.88;22.00;;;13.50;99.70;;;;;;5002565;28;20044;-68
2021/10/08 07:40:08;;;;;;;30.95;21.75;;;13.60;99.60;;;;;;5001556;28;20385;-68
2021/10/08 07:42:35;;;;;;;31.00;22.02;;;13.60;99.40;;;;;;5002803;28;20026;-69
2021/10/08 07:45:02;;;;;;;36.03;21.88;;;13.70;99.30;;;;;;5000056;28;20065;-68
2021/10/08 07:47:28;;;;;;;31.13;21.50;;;13.80;99.10;;;;;;5010017;28;20041;-68
2021/10/08 07:49:53;;;;;;;30.77;20.85;;;13.80;99.00;;;;;;5000976;28;20409;-68
2021/10/08 07:52:19;;;;;;;28.98;20.25;;;13.90;99.00;;;;;;4995822;28;20026;-68
2021/10/08 07:54:44;;;;;;;31.80;20.25;;;13.90;98.90;;;;;;4995755;28;20069;-68
2021/10/08 07:57:10;;;;;;;30.63;20.00;;;14.00;98.80;;;;;;5002958;28;20093;-69
2021/10/08 07:59:36;;;;;;;30.83;20.38;;;14.10;98.80;;;;;;5006024;28;20113;-67
2021/10/08 08:02:01;;;;;;;31.25;20.73;;;14.10;98.70;;;;;;4999488;28;20078;-66
2021/10/08 08:04:27;;;;;;;30.05;20.05;;;14.20;98.50;;;;;;5000922;28;20026;-68
2021/10/08 08:06:52;;;;;;;33.95;21.42;;;14.20;98.50;;;;;;5006628;28;20421;-68
2021/10/08 08:09:18;;;;;;;30.13;20.33;;;14.20;98.50;;;;;;5000340;28;20044;-66
2021/10/08 08:11:44;;;;;;;30.33;20.88;;;14.20;98.40;;;;;;5002155;28;20034;-67
2021/10/08 08:14:09;;;;;;;33.78;21.50;;;14.20;98.10;;;;;;5000603;28;20112;-68
2021/10/08 08:16:35;;;;;;;27.67;20.05;;;14.20;98.00;;;;;;5002119;28;20022;-68
2021/10/08 08:19:00;;;;;;;33.17;21.15;;;14.30;98.10;;;;;;4998543;28;20038;-69
2021/10/08 08:21:26;;;;;;;28.90;19.75;;;14.30;97.90;;;;;;4995567;28;20030;-68
2021/10/08 08:23:51;;;;;;;29.60;22.15;;;14.30;98.00;;;;;;4999764;28;20034;-68
2021/10/08 08:26:17;;;;;;;29.17;20.05;;;14.30;97.90;;;;;;5007554;28;20026;-69
2021/10/08 08:28:42;;;;;;;24.38;17.80;;;14.30;97.90;;;;;;5003406;28;20133;-68
2021/10/08 08:31:09;;;;;;;31.88;20.00;;;14.40;98.10;;;;;;5001602;28;20069;-69
2021/10/08 08:33:35;;;;;;;28.63;18.88;;;14.50;98.10;;;;;;5009636;28;20509;-68
2021/10/08 08:36:02;;;;;;;29.05;19.73;;;14.60;98.10;;;;;;4999155;28;20026;-68
2021/10/08 08:38:28;;;;;;;28.88;19.77;;;14.70;97.70;;;;;;4999055;28;20062;-69
2021/10/08 08:40:53;;;;;;;28.35;19.13;;;14.70;97.70;;;;;;4996506;28;20073;-70
2021/10/08 08:43:19;;;;;;;28.15;20.40;;;14.80;97.70;;;;;;5007708;28;20477;-69
2021/10/08 08:45:44;;;;;;;28.20;19.98;;;14.80;97.70;;;;;;5000332;28;20719;-68
2021/10/08 08:48:11;;;;;;;28.42;18.42;;;15.00;97.50;;;;;;5009900;28;20037;-69
2021/10/08 08:50:44;;;;;;;27.92;19.13;;;15.00;97.40;;;;;;5002517;28;20034;-69
2021/10/08 08:53:11;;;;;;;24.23;16.73;;;15.00;97.10;;;;;;5003400;28;20038;-69
2021/10/08 08:55:37;;;;;;;29.90;18.73;;;15.10;96.90;;;;;;4995664;28;20580;-69
2021/10/08 08:58:02;;;;;;;27.48;17.48;;;15.20;96.70;;;;;;5001966;28;20066;-70
2021/10/08 09:00:29;;;;;;;26.02;16.83;;;15.20;96.10;;;;;;4999977;28;20709;-70
2021/10/08 09:02:58;;;;;;;24.40;16.17;;;15.30;95.90;;;;;;5009373;28;20156;-69
2021/10/08 09:05:29;;;;;;;26.08;17.10;;;15.30;95.90;;;;;;5002152;28;20037;-70
2021/10/08 09:07:57;;;;;;;20.67;14.75;;;15.30;95.80;;;;;;5008924;28;20033;-70
2021/10/08 09:10:28;;;;;;;21.20;13.98;;;15.40;95.40;;;;;;5002178;28;20030;-72
2021/10/08 09:12:56;;;;;;;22.58;14.82;;;15.50;95.10;;;;;;5007553;28;20200;-74
2021/10/08 09:15:22;;;;;;;25.08;13.48;;;15.50;95.00;;;;;;4999156;28;20034;-71
2021/10/08 09:17:48;;;;;;;15.80;11.98;;;15.50;94.20;;;;;;5010164;28;20029;-71
2021/10/08 09:20:16;;;;;;;23.52;11.45;;;15.50;93.20;;;;;;4990768;28;20121;-71
2021/10/08 09:22:41;;;;;;;17.02;10.68;;;15.50;93.30;;;;;;5002847;28;20364;-71
2021/10/08 09:25:26;;;;;;;18.05;12.15;;;15.50;93.50;;;;;;5013654;28;20064;-71
2021/10/08 09:28:01;;;;;;;23.75;12.02;;;15.60;93.00;;;;;;5010179;28;20503;-70
2021/10/08 09:30:34;;;;;;;18.17;11.57;;;15.60;92.50;;;;;;5010087;28;20168;-71
2021/10/08 09:32:59;;;;;;;18.15;12.48;;;15.70;92.80;;;;;;5011401;28;20429;-68
2021/10/08 09:35:26;;;;;;;14.95;10.70;;;15.70;92.50;;;;;;5010104;28;20025;-68
2021/10/08 09:38:02;;;;;;;15.80;10.52;;;15.70;92.40;;;;;;5010999;28;20022;-68
2021/10/08 09:40:34;;;;;;;17.13;9.82;;;15.70;92.30;;;;;;5009140;28;20105;-68
2021/10/08 09:43:08;;;;;;;14.45;9.27;;;15.80;91.80;;;;;;5027903;28;20498;-68
2021/10/08 09:45:52;;;;;;;16.63;10.30;;;15.80;91.00;;;;;;5013180;28;20039;-68
2021/10/08 09:48:19;;;;;;;18.58;10.02;;;15.90;91.10;;;;;;4999391;28;20426;-69
2021/10/08 09:51:05;;;;;;;15.02;8.75;;;15.80;89.90;;;;;;5001461;28;20494;-69
2021/10/08 09:53:34;;;;;;;15.18;9.15;;;15.80;90.00;;;;;;5005239;28;20440;-67
2021/10/08 09:56:00;;;;;;;18.10;8.98;;;15.80;89.40;;;;;;5004794;28;20041;-68
2021/10/08 09:58:25;;;;;;;14.88;8.40;;;15.80;89.20;;;;;;5007556;28;20121;-70
2021/10/08 10:01:04;;;;;;;18.42;8.73;;;15.80;89.00;;;;;;5008491;28;20120;-68
2021/10/08 10:03:31;;;;;;;19.70;8.10;;;15.90;88.50;;;;;;5004982;28;20049;-68
2021/10/08 10:06:01;;;;;;;17.13;8.90;;;15.90;86.80;;;;;;5008565;28;20026;-69
2021/10/08 10:08:27;;;;;;;15.05;7.50;;;15.90;87.40;;;;;;5008267;28;20352;-69
2021/10/08 10:10:54;;;;;;;15.95;8.20;;;15.90;87.20;;;;;;4999297;28;20111;-69
2021/10/08 10:13:20;;;;;;;18.13;8.02;;;16.00;87.20;;;;;;5004285;28;20088;-68
2021/10/08 10:15:48;;;;;;;13.90;8.57;;;16.00;87.20;;;;;;5008083;28;20052;-68
2021/10/08 10:18:17;;;;;;;19.60;8.68;;;16.00;86.20;;;;;;5003785;28;20040;-69
2021/10/08 10:20:52;;;;;;;17.85;8.35;;;16.10;86.50;;;;;;5004448;28;20041;-68
2021/10/08 10:23:23;;;;;;;17.35;8.48;;;16.20;86.20;;;;;;5003224;28;20515;-69
2021/10/08 10:25:51;;;;;;;19.27;8.02;;;16.20;86.30;;;;;;5009562;28;20084;-69
2021/10/08 10:28:17;;;;;;;16.92;9.13;;;16.20;85.40;;;;;;5008675;28;20064;-69
2021/10/08 10:30:45;;;;;;;17.63;8.63;;;16.20;85.90;;;;;;5006423;28;20443;-69
2021/10/08 10:33:11;;;;;;;13.27;7.05;;;16.30;84.70;;;;;;5008708;28;20154;-69
2021/10/08 10:35:50;;;;;;;13.65;8.68;;;16.40;85.10;;;;;;5005135;28;20107;-69
2021/10/08 10:38:28;;;;;;;12.90;8.07;;;16.40;84.10;;;;;;5006201;28;20578;-69
2021/10/08 10:41:09;;;;;;;16.20;8.98;;;16.40;84.50;;;;;;5006995;28;20050;-69
2021/10/08 10:43:41;;;;;;;15.30;8.65;;;16.40;85.00;;;;;;5004015;28;20033;-70
2021/10/08 10:46:32;;;;;;;14.82;8.38;;;16.50;84.70;;;;;;5002123;28;20529;-69
2021/10/08 10:51:57;;;;;;;15.05;9.00;;;16.50;83.90;;;;;;5002476;28;20042;-69
2021/10/08 10:54:52;;;;;;;15.05;8.25;;;16.50;83.50;;;;;;4996143;28;20556;-69
2021/10/08 10:57:29;;;;;;;12.40;7.05;;;16.60;84.10;;;;;;4996681;28;20042;-69
2021/10/08 11:00:21;;;;;;;19.30;8.93;;;16.60;83.90;;;;;;5002104;28;20125;-69
2021/10/08 11:02:47;;;;;;;16.73;8.05;;;16.60;83.90;;;;;;4996109;28;20025;-69
2021/10/08 11:05:20;;;;;;;26.55;10.00;;;16.70;84.80;;;;;;5008283;28;20038;-69
2021/10/08 11:08:09;;;;;;;13.88;8.38;;;16.70;84.10;;;;;;5010912;28;20061;-69
2021/10/08 11:10:38;;;;;;;16.20;8.82;;;16.80;84.40;;;;;;5004604;28;20117;-69
2021/10/08 11:13:35;;;;;;;17.60;8.50;;;16.90;84.50;;;;;;5009565;28;20042;-69
2021/10/08 11:16:03;;;;;;;19.35;8.93;;;16.90;84.50;;;;;;4992910;28;20034;-69
2021/10/08 11:18:43;;;;;;;17.17;8.80;;;17.00;83.80;;;;;;5010575;28;20151;-69
2021/10/08 11:21:12;;;;;;;16.13;9.32;;;17.00;83.70;;;;;;5002829;28;20026;-69
2021/10/08 11:23:39;;;;;;;15.82;8.43;;;17.00;83.90;;;;;;5009705;28;20110;-69
2021/10/08 11:26:07;;;;;;;15.20;8.93;;;17.00;83.40;;;;;;5007042;28;20036;-69
2021/10/08 11:28:35;;;;;;;18.73;10.13;;;17.00;82.70;;;;;;5009994;28;20057;-69
2021/10/08 11:31:03;;;;;;;14.23;8.18;;;17.00;82.50;;;;;;5022058;28;20080;-69
2021/10/08 11:33:37;;;;;;;17.42;8.52;;;17.00;82.60;;;;;;5012737;28;20100;-69
2021/10/08 11:36:19;;;;;;;15.38;8.85;;;16.90;81.70;;;;;;5004742;28;20065;-69
2021/10/08 11:38:47;;;;;;;22.40;8.38;;;16.90;82.40;;;;;;5008979;28;20055;-69
2021/10/08 11:41:24;;;;;;;19.48;8.88;;;16.90;82.30;;;;;;5006984;28;20033;-69
2021/10/08 11:44:10;;;;;;;12.88;8.27;;;17.00;82.20;;;;;;5011080;28;20415;-65
2021/10/08 11:46:55;;;;;;;15.90;9.10;;;17.00;82.70;;;;;;5012869;28;20037;-65
2021/10/08 11:49:40;;;;;;;15.38;7.88;;;17.10;82.60;;;;;;5010498;28;20102;-70
2021/10/08 11:52:06;;;;;;;17.80;9.18;;;17.10;82.40;;;;;;5011438;28;20034;-73
2021/10/08 11:54:32;;;;;;;15.57;9.10;;;17.10;81.50;;;;;;5012241;28;20054;-73
2021/10/08 11:57:04;;;;;;;17.83;7.18;;;17.20;81.00;;;;;;4996475;28;20495;-73
2021/10/08 11:59:30;;;;;;;15.68;9.65;;;17.20;80.60;;;;;;5001173;28;20474;-73
2021/10/08 12:02:15;;;;;;;15.38;8.73;;;17.20;80.90;;;;;;5008027;28;20063;-73
2021/10/08 12:04:55;;;;;;;;;;;17.20;81.10;;;;;;5012571;28;20029;-73
2021/10/08 12:07:20;;;;;;;14.35;8.23;;;17.30;81.60;;;;;;5011329;28;19916;-74
2021/10/08 12:09:46;;;;;;;12.88;8.35;;;17.20;80.50;;;;;;5010799;28;20037;-73
2021/10/08 12:12:16;;;;;;;16.13;7.65;;;17.20;80.40;;;;;;5010866;28;20029;-73
2021/10/08 12:14:47;;;;;;;15.55;7.28;;;17.30;79.70;;;;;;4997308;28;20084;-73
2021/10/08 12:17:13;;;;;;;14.75;8.05;;;17.20;79.40;;;;;;5001567;28;20092;-73
2021/10/08 12:19:39;;;;;;;15.70;7.70;;;17.20;78.20;;;;;;5005440;28;20030;-73
2021/10/08 12:22:04;;;;;;;14.43;7.10;;;17.20;78.10;;;;;;5009452;28;20022;-73
2021/10/08 12:24:32;;;;;;;14.98;7.22;;;17.20;78.40;;;;;;5011607;28;20524;-73
2021/10/08 12:27:00;;;;;;;10.88;6.97;;;17.30;78.30;;;;;;5011179;28;20033;-73
2021/10/08 12:29:38;;;;;;;16.08;7.18;;;17.30;77.70;;;;;;5010501;28;20652;-73
2021/10/08 12:32:09;;;;;;;15.48;8.38;;;17.30;78.10;;;;;;5011042;28;20021;-73
2021/10/08 12:34:46;;;;;;;21.45;7.05;;;17.40;77.70;;;;;;5003508;28;20036;-73